Time,TemperatureF,DewpointF,PressureIn,WindDirection,WindDirectionDegrees,WindSpeedMPH,WindSpeedGustMPH,Humidity,HourlyPrecipIn,Conditions,Clouds,dailyrainin,SoftwareType,DateUTC
2013-01-21 00:02:00,1.0,-3.0,-100.00,West,260,0.0,0.0,83,0.00,,,0.00,,2013-01-21 07:02:00,
2013-01-21 00:22:00,1.0,-3.0,30.37,West,260,0.0,0.0,84,-99.99,,,-99.99,,2013-01-21 07:22:00,
2013-01-21 00:32:00,0.0,-4.0,-100.00,West,260,0.0,1.0,83,0.00,,,0.00,,2013-01-21 07:32:00,
2013-01-21 00:53:00,-1.0,-5.0,-100.00,West,260,0.0,2.0,81,0.00,,,0.00,,2013-01-21 07:53:00,
2013-01-21 01:02:00,-1.0,-5.0,-100.00,West,260,0.0,1.0,82,0.00,,,0.00,,2013-01-21 08:02:00,
2013-01-21 01:22:00,-2.0,-6.0,-100.00,West,260,0.0,0.0,81,0.00,,,0.00,,2013-01-21 08:22:00,
2013-01-21 01:32:00,-2.0,-6.0,-100.00,West,260,0.0,1.0,82,0.00,,,0.00,,2013-01-21 08:32:00,
2013-01-21 01:53:00,-1.0,-5.0,-100.00,West,260,0.0,0.0,84,0.00,,,0.00,,2013-01-21 08:53:00,
2013-01-21 02:02:00,-1.0,-5.0,-100.00,West,260,0.0,1.0,84,0.00,,,0.00,,2013-01-21 09:02:00,
2013-01-21 02:22:00,-2.0,-6.0,-100.00,West,260,0.0,1.0,82,0.00,,,0.00,,2013-01-21 09:22:00,
2013-01-21 02:32:00,-2.0,-6.0,-100.00,West,260,0.0,1.0,81,0.00,,,0.00,,2013-01-21 09:32:00,
2013-01-21 02:53:00,-3.0,-7.0,-100.00,West,260,0.0,0.0,82,0.00,,,0.00,,2013-01-21 09:53:00,
2013-01-21 03:01:00,-3.0,-7.0,-100.00,SW,224,0.0,1.0,82,0.00,,,0.00,,2013-01-21 10:01:00,
2013-01-21 03:22:00,-3.0,-7.0,-100.00,SW,224,0.0,0.0,81,0.00,,,0.00,,2013-01-21 10:22:00,
2013-01-21 03:32:00,-3.0,-7.0,-100.00,SW,224,0.0,1.0,81,0.00,,,0.00,,2013-01-21 10:32:00,
2013-01-21 03:52:00,-4.0,-8.0,-100.00,SW,224,0.0,1.0,81,0.00,,,0.00,,2013-01-21 10:52:00,
2013-01-21 04:02:00,-4.0,-8.0,-100.00,SW,224,0.0,1.0,81,0.00,,,0.00,,2013-01-21 11:02:00,
2013-01-21 04:22:00,-4.0,-8.0,-100.00,WNW,293,0.0,1.0,81,0.00,,,0.00,,2013-01-21 11:22:00,
2013-01-21 04:32:00,-4.0,-8.0,-100.00,NW,320,0.0,1.0,83,0.00,,,0.00,,2013-01-21 11:32:00,
2013-01-21 05:02:00,-4.0,-9.0,-100.00,SSW,206,0.0,1.0,80,0.00,,,0.00,,2013-01-21 12:02:00,
2013-01-21 05:22:00,-5.0,-9.0,-100.00,WNW,282,0.0,1.0,81,0.00,,,0.00,,2013-01-21 12:22:00,
2013-01-21 05:42:00,-5.0,-9.0,-100.00,WNW,282,0.0,1.0,81,0.00,,,0.00,,2013-01-21 12:42:00,
2013-01-21 05:52:00,-5.0,-9.0,-100.00,WNW,282,0.0,1.0,81,0.00,,,0.00,,2013-01-21 12:52:00,